Moro Plt, Maine
Current Conditions -  °F | °C
As of 5:53 AM on Monday 20 Oct 2014 (Local Time) from KHUL Reporting Station
Overcast Overcast  
Wind Chill: 32°   Ceiling: 4000
Heat Index: 37°   Visibility: 10mi
Dew Point: 28°   Wind: 7mph
Humidity: 70%   Direction: 260°W
Pressure: 29.76"   Gusts: NA
Location:  46.2367°N, 68.3001°W
Report Text: KHUL 200953Z AUTO 26006KT 10SM OVC040 03/M02 A2976 RMK AO2 SLP083 T00281022
Loading
Personal Weather Stations






























Interactive Weather Map
Tropical Storm Tracking
New forecast layout! Learn more

10-Day Weather Forecast

Advertisements
Track Severe Weather on mobile